Terminal Aerodrome Forecast
Issued by NWS Cleveland, OH

Home | Current Version | Previous Version | Text Only | Print | Product List | Glossary Off
Versions: 1 2 3 4 5 6 7 8 9 10 11 12 13 14 15 16 17

954
FTUS41 KCLE 151920 AAA
TAFERI
TAF AMD
KERI 151920Z 1519/1618 26025G40KT P6SM VCSH SCT015 OVC035
      TEMPO 1519/1521 VRB35G45KT 1SM TSRA BKN015CB OVC025
     FM152300 27025G40KT P6SM SCT015 OVC025
     FM160600 32015G25KT P6SM BKN015
     FM161200 33011KT P6SM SCT015 BKN025=

USA.gov is the U.S. government's official web portal to all federal, state and local government web resources and services.